createdAt,value
2019-03-13T00:01:04.111Z,9.22
2019-03-13T00:02:11.591Z,9.26
2019-03-13T00:03:16.874Z,9.21
2019-03-13T00:04:22.476Z,9.26
2019-03-13T00:05:27.387Z,9.35
2019-03-13T00:06:32.781Z,9.35
2019-03-13T00:07:37.780Z,9.44
2019-03-13T00:08:42.704Z,9.48
2019-03-13T00:09:47.968Z,9.38
2019-03-13T00:10:53.234Z,9.46
2019-03-13T00:11:58.854Z,9.28
2019-03-13T00:13:06.204Z,9.28
2019-03-13T00:14:12.765Z,9.28
2019-03-13T00:15:18.001Z,9.32
2019-03-13T00:16:26.559Z,9.25
2019-03-13T00:17:31.857Z,9.06
2019-03-13T00:18:37.484Z,9.08
2019-03-13T00:19:42.743Z,9.12
2019-03-13T00:20:48.376Z,9.31
2019-03-13T00:21:53.975Z,9.31
2019-03-13T00:22:59.295Z,9.24
2019-03-13T00:24:04.229Z,9.22
2019-03-13T00:25:09.143Z,9.24
2019-03-13T00:26:14.798Z,9.23
2019-03-13T00:27:20.376Z,9.22
2019-03-13T00:28:26.028Z,9.15
2019-03-13T00:29:31.731Z,9.19
2019-03-13T00:30:37.621Z,9.22
2019-03-13T00:31:43.229Z,9.37
2019-03-13T00:32:48.853Z,9.31
2019-03-13T00:33:54.464Z,9.30
2019-03-13T00:35:00.074Z,9.22
2019-03-13T00:36:05.638Z,9.30
2019-03-13T00:37:11.274Z,9.31
2019-03-13T00:38:16.889Z,9.34
2019-03-13T00:39:22.586Z,9.33
2019-03-13T00:40:27.880Z,9.29
2019-03-13T00:41:33.495Z,9.19
2019-03-13T00:42:38.715Z,9.17
2019-03-13T00:43:44.037Z,9.24
2019-03-13T00:44:49.732Z,9.10
2019-03-13T00:45:55.340Z,9.11
2019-03-13T00:47:00.984Z,9.11
2019-03-13T00:48:06.580Z,9.18
2019-03-13T00:49:12.008Z,9.16
2019-03-13T00:50:23.575Z,9.02
2019-03-13T00:51:29.165Z,9.08
2019-03-13T00:52:34.444Z,9.11
2019-03-13T00:53:40.021Z,8.98
2019-03-13T00:54:45.652Z,8.95
2019-03-13T00:55:51.257Z,8.98
2019-03-13T00:56:56.946Z,9.08
2019-03-13T00:58:02.550Z,9.02
2019-03-13T00:59:08.197Z,8.95
2019-03-13T01:00:12.917Z,9.04
2019-03-13T01:01:19.750Z,8.91
2019-03-13T01:02:25.106Z,8.95
2019-03-13T01:03:40.421Z,8.90
2019-03-13T01:04:46.359Z,8.92
2019-03-13T01:05:54.253Z,8.97
2019-03-13T01:06:59.252Z,8.96
2019-03-13T01:08:04.847Z,8.99
2019-03-13T01:09:10.513Z,8.98
2019-03-13T01:10:15.490Z,8.85
2019-03-13T01:11:21.068Z,8.75
2019-03-13T01:12:26.650Z,8.75
2019-03-13T01:13:32.275Z,8.84
2019-03-13T01:14:37.921Z,8.66
2019-03-13T01:15:43.581Z,8.77
2019-03-13T01:16:49.195Z,8.82
2019-03-13T01:17:54.833Z,8.79
2019-03-13T01:19:00.442Z,8.79
2019-03-13T01:20:05.364Z,8.73
2019-03-13T01:21:10.988Z,8.64
2019-03-13T01:22:16.593Z,8.67
2019-03-13T01:23:21.833Z,8.68
2019-03-13T01:24:27.468Z,8.62
2019-03-13T01:25:33.095Z,8.42
2019-03-13T01:26:38.689Z,8.38
2019-03-13T01:27:44.351Z,8.43
2019-03-13T01:28:49.981Z,8.42
2019-03-13T01:29:55.630Z,8.49
2019-03-13T01:31:16.791Z,8.48
2019-03-13T01:32:26.273Z,8.46
2019-03-13T01:33:31.877Z,8.27
2019-03-13T01:34:37.296Z,8.25
2019-03-13T01:35:42.634Z,8.19
2019-03-13T01:36:48.275Z,8.24
2019-03-13T01:37:53.875Z,8.08
2019-03-13T01:38:59.447Z,8.13
2019-03-13T01:40:04.388Z,8.16
2019-03-13T01:41:09.992Z,8.14
2019-03-13T01:42:15.616Z,8.12
2019-03-13T01:43:21.219Z,8.11
2019-03-13T01:44:26.830Z,8.18
2019-03-13T01:45:32.437Z,8.09
2019-03-13T01:46:38.113Z,8.17
2019-03-13T01:47:43.359Z,8.09
2019-03-13T01:48:48.941Z,8.15
2019-03-13T01:49:54.577Z,8.11
2019-03-13T01:51:00.385Z,8.10
2019-03-13T01:52:05.374Z,8.14
2019-03-13T01:53:11.011Z,8.08
2019-03-13T01:54:16.617Z,8.00
2019-03-13T01:55:22.321Z,8.05
2019-03-13T01:56:27.972Z,8.11
2019-03-13T01:57:33.568Z,8.12
2019-03-13T01:58:39.714Z,8.15
2019-03-13T01:59:45.280Z,8.08
2019-03-13T02:00:50.922Z,7.99
2019-03-13T02:01:59.105Z,7.96
2019-03-13T02:03:04.334Z,8.03
2019-03-13T02:04:10.085Z,8.00
2019-03-13T02:05:15.023Z,8.00
2019-03-13T02:06:20.636Z,7.98
2019-03-13T02:07:26.243Z,8.03
2019-03-13T02:08:31.956Z,7.95
2019-03-13T02:09:37.195Z,7.96
2019-03-13T02:10:42.815Z,7.88
2019-03-13T02:11:48.410Z,7.95
2019-03-13T02:12:56.727Z,7.94
2019-03-13T02:14:02.311Z,7.94
2019-03-13T02:15:07.224Z,7.89
2019-03-13T02:16:12.965Z,7.86
2019-03-13T02:17:18.244Z,7.81
2019-03-13T02:18:23.865Z,7.89
2019-03-13T02:19:29.553Z,7.86
2019-03-13T02:20:35.240Z,7.93
2019-03-13T02:21:40.525Z,7.93
2019-03-13T02:22:45.760Z,7.89
2019-03-13T02:23:51.344Z,7.76
2019-03-13T02:24:57.014Z,7.76
2019-03-13T02:26:02.711Z,7.71
2019-03-13T02:27:08.305Z,7.64
2019-03-13T02:28:13.972Z,7.68
2019-03-13T02:29:19.564Z,7.69
2019-03-13T02:30:25.026Z,7.59
2019-03-13T02:31:30.648Z,7.71
2019-03-13T02:32:37.058Z,7.69
2019-03-13T02:33:42.753Z,7.66
2019-03-13T02:34:48.451Z,7.63
2019-03-13T02:35:54.068Z,7.62
2019-03-13T02:36:59.692Z,7.60
2019-03-13T02:38:05.267Z,7.61
2019-03-13T02:39:10.957Z,7.47
2019-03-13T02:40:15.881Z,7.31
2019-03-13T02:41:21.533Z,7.27
2019-03-13T02:42:27.130Z,7.27
2019-03-13T02:43:32.748Z,7.24
2019-03-13T02:44:38.349Z,7.22
2019-03-13T02:45:44.863Z,7.17
2019-03-13T02:46:50.526Z,7.12
2019-03-13T02:47:55.872Z,7.19
2019-03-13T02:49:01.517Z,7.08
2019-03-13T02:50:06.540Z,7.04
2019-03-13T02:51:12.173Z,6.86
2019-03-13T02:52:17.764Z,6.86
2019-03-13T02:53:23.408Z,6.98
2019-03-13T02:54:29.008Z,7.08
2019-03-13T02:55:34.654Z,6.99
2019-03-13T02:56:40.332Z,7.02
2019-03-13T02:57:45.968Z,6.86
2019-03-13T02:58:51.552Z,6.88
2019-03-13T02:59:57.185Z,6.76
2019-03-13T03:01:07.790Z,6.86
2019-03-13T03:02:17.715Z,6.65
2019-03-13T03:03:32.661Z,6.73
2019-03-13T03:04:37.942Z,6.64
2019-03-13T03:05:43.569Z,6.55
2019-03-13T03:06:49.225Z,6.54
2019-03-13T03:07:54.929Z,6.47
2019-03-13T03:09:02.775Z,6.29
2019-03-13T03:10:07.828Z,6.39
2019-03-13T03:11:13.510Z,6.36
2019-03-13T03:12:19.161Z,6.30
2019-03-13T03:13:24.499Z,6.27
2019-03-13T03:14:30.132Z,6.27
2019-03-13T03:15:35.801Z,6.25
2019-03-13T03:16:41.437Z,6.29
2019-03-13T03:17:47.063Z,6.29
2019-03-13T03:18:52.873Z,6.36
2019-03-13T03:19:58.127Z,6.26
2019-03-13T03:21:03.799Z,6.19
2019-03-13T03:22:11.700Z,6.10
2019-03-13T03:23:17.376Z,5.95
2019-03-13T03:24:22.984Z,5.96
2019-03-13T03:25:28.584Z,5.83
2019-03-13T03:26:34.175Z,5.98
2019-03-13T03:27:39.773Z,6.01
2019-03-13T03:28:45.026Z,5.81
2019-03-13T03:29:50.642Z,5.76
2019-03-13T03:30:56.310Z,5.81
2019-03-13T03:32:01.994Z,5.67
2019-03-13T03:33:08.035Z,5.70
2019-03-13T03:34:14.661Z,5.82
2019-03-13T03:35:20.452Z,5.67
2019-03-13T03:36:26.112Z,5.76
2019-03-13T03:37:32.077Z,5.76
2019-03-13T03:38:37.864Z,5.73
2019-03-13T03:39:43.684Z,5.74
2019-03-13T03:40:48.997Z,5.65
2019-03-13T03:41:54.605Z,5.54
2019-03-13T03:43:00.226Z,5.62
2019-03-13T03:44:05.872Z,5.68
2019-03-13T03:45:10.827Z,5.58
2019-03-13T03:46:16.476Z,5.52
2019-03-13T03:47:22.234Z,5.55
2019-03-13T03:48:27.880Z,5.60
2019-03-13T03:49:33.263Z,5.53
2019-03-13T03:50:38.968Z,5.62
2019-03-13T03:51:44.891Z,5.49
2019-03-13T03:52:50.698Z,5.52
2019-03-13T03:53:56.305Z,5.56
2019-03-13T03:55:02.017Z,5.64
2019-03-13T03:56:07.765Z,5.65
2019-03-13T03:57:13.490Z,5.65
2019-03-13T03:58:19.225Z,5.58
2019-03-13T03:59:24.966Z,5.51
2019-03-13T04:00:30.664Z,5.40
2019-03-13T04:01:36.334Z,5.48
2019-03-13T04:02:41.994Z,5.31
2019-03-13T04:03:47.682Z,5.32
2019-03-13T04:04:53.097Z,5.31
2019-03-13T04:05:58.421Z,5.13
2019-03-13T04:07:03.763Z,5.27
2019-03-13T04:08:09.543Z,5.32
2019-03-13T04:09:15.399Z,5.32
2019-03-13T04:10:21.117Z,5.21
2019-03-13T04:11:26.813Z,5.20
2019-03-13T04:12:32.546Z,5.09
2019-03-13T04:13:38.922Z,5.15
2019-03-13T04:14:44.639Z,5.19
2019-03-13T04:15:50.040Z,5.04
2019-03-13T04:16:55.712Z,5.16
2019-03-13T04:18:01.470Z,5.15
2019-03-13T04:19:07.196Z,5.00
2019-03-13T04:20:12.286Z,4.99
2019-03-13T04:21:18.166Z,5.15
2019-03-13T04:22:23.590Z,5.17
2019-03-13T04:23:30.235Z,5.18
2019-03-13T04:24:35.996Z,5.10
2019-03-13T04:25:41.630Z,5.20
2019-03-13T04:26:46.983Z,5.24
2019-03-13T04:27:52.636Z,5.13
2019-03-13T04:28:58.351Z,5.10
2019-03-13T04:30:06.998Z,4.91
2019-03-13T04:31:12.696Z,4.93
2019-03-13T04:32:18.435Z,5.18
2019-03-13T04:33:23.457Z,4.93
2019-03-13T04:34:29.225Z,4.77
2019-03-13T04:35:35.030Z,4.87
2019-03-13T04:36:40.764Z,4.98
2019-03-13T04:37:46.363Z,4.92
2019-03-13T04:38:51.968Z,5.06
2019-03-13T04:39:57.546Z,5.01
2019-03-13T04:41:03.134Z,4.71
2019-03-13T04:42:08.731Z,4.85
2019-03-13T04:43:14.358Z,4.81
2019-03-13T04:44:19.973Z,4.90
2019-03-13T04:45:25.567Z,4.86
2019-03-13T04:46:31.134Z,4.75
2019-03-13T04:47:36.701Z,4.73
2019-03-13T04:48:42.296Z,4.70
2019-03-13T04:49:47.888Z,4.67
2019-03-13T04:50:53.475Z,4.71
2019-03-13T04:51:59.096Z,4.98
2019-03-13T04:53:04.674Z,5.04
2019-03-13T04:54:10.304Z,4.88
2019-03-13T04:55:15.209Z,4.79
2019-03-13T04:56:20.791Z,4.71
2019-03-13T04:57:26.397Z,4.70
2019-03-13T04:58:32.049Z,4.66
2019-03-13T04:59:39.678Z,4.68
2019-03-13T05:00:45.285Z,4.68
2019-03-13T05:01:50.915Z,4.81
2019-03-13T05:02:56.167Z,4.96
2019-03-13T05:04:01.813Z,4.90
2019-03-13T05:05:06.671Z,4.87
2019-03-13T05:06:11.624Z,4.75
2019-03-13T05:07:17.253Z,4.73
2019-03-13T05:08:44.589Z,4.93
2019-03-13T05:09:38.422Z,4.82
2019-03-13T05:10:44.005Z,4.89
2019-03-13T05:11:51.957Z,4.83
2019-03-13T05:12:57.604Z,4.83
2019-03-13T05:14:03.211Z,4.78
2019-03-13T05:15:08.241Z,4.82
2019-03-13T05:16:13.804Z,4.68
2019-03-13T05:17:19.413Z,4.60
2019-03-13T05:18:24.694Z,4.68
2019-03-13T05:19:30.323Z,4.76
2019-03-13T05:20:35.879Z,4.86
2019-03-13T05:21:41.458Z,4.78
2019-03-13T05:22:47.050Z,4.71
2019-03-13T05:23:52.697Z,4.61
2019-03-13T05:24:58.294Z,4.63
2019-03-13T05:26:03.871Z,4.82
2019-03-13T05:27:09.492Z,4.81
2019-03-13T05:28:15.085Z,4.84
2019-03-13T05:29:20.721Z,4.95
2019-03-13T05:30:26.008Z,4.87
2019-03-13T05:31:31.567Z,5.02
2019-03-13T05:32:37.169Z,4.96
2019-03-13T05:33:42.789Z,4.88
2019-03-13T05:34:48.434Z,4.75
2019-03-13T05:35:54.056Z,4.87
2019-03-13T05:36:59.329Z,4.91
2019-03-13T05:38:04.568Z,4.89
2019-03-13T05:39:10.823Z,4.78
2019-03-13T05:40:16.463Z,4.87
2019-03-13T05:41:22.056Z,4.87
2019-03-13T05:42:27.658Z,4.77
2019-03-13T05:43:33.267Z,4.82
2019-03-13T05:44:38.904Z,4.90
2019-03-13T05:45:44.562Z,4.77
2019-03-13T05:46:50.146Z,4.87
2019-03-13T05:47:55.722Z,4.82
2019-03-13T05:49:01.582Z,4.96
2019-03-13T05:50:07.185Z,4.95
2019-03-13T05:51:12.823Z,4.64
2019-03-13T05:52:18.462Z,4.59
2019-03-13T05:53:24.027Z,4.66
2019-03-13T05:54:29.651Z,4.76
2019-03-13T05:55:35.255Z,4.73
2019-03-13T05:56:41.397Z,4.84
2019-03-13T05:57:47.059Z,4.94
2019-03-13T05:58:52.605Z,4.71
2019-03-13T05:59:58.193Z,4.92
2019-03-13T06:01:03.412Z,4.82
2019-03-13T06:02:09.051Z,4.89
2019-03-13T06:03:14.698Z,4.90
2019-03-13T06:04:20.373Z,4.75
2019-03-13T06:05:26.030Z,4.81
2019-03-13T06:06:31.713Z,4.82
2019-03-13T06:07:37.211Z,4.85
2019-03-13T06:08:42.844Z,5.01
2019-03-13T06:09:48.380Z,5.02
2019-03-13T06:10:54.026Z,5.00
2019-03-13T06:11:59.629Z,5.03
2019-03-13T06:13:05.257Z,4.98
2019-03-13T06:14:10.859Z,5.13
2019-03-13T06:15:15.868Z,5.19
2019-03-13T06:16:21.513Z,5.20
2019-03-13T06:17:27.117Z,5.23
2019-03-13T06:18:32.704Z,5.23
2019-03-13T06:19:38.298Z,5.25
2019-03-13T06:20:43.957Z,5.34
2019-03-13T06:21:49.511Z,5.36
2019-03-13T06:22:55.496Z,5.37
2019-03-13T06:24:01.066Z,5.40
2019-03-13T06:25:06.018Z,5.43
2019-03-13T06:26:11.833Z,5.45
2019-03-13T06:27:17.435Z,5.44
2019-03-13T06:28:23.018Z,5.43
2019-03-13T06:29:31.518Z,5.30
2019-03-13T06:30:34.187Z,5.44
2019-03-13T06:31:39.804Z,5.53
2019-03-13T06:32:45.375Z,5.45
2019-03-13T06:33:51.141Z,5.40
2019-03-13T06:34:56.724Z,5.58
2019-03-13T06:36:02.379Z,5.54
2019-03-13T06:37:07.958Z,5.49
2019-03-13T06:38:12.884Z,5.55
2019-03-13T06:39:18.479Z,5.64
2019-03-13T06:40:24.040Z,5.69
2019-03-13T06:41:29.649Z,5.70
2019-03-13T06:42:35.267Z,5.79
2019-03-13T06:43:40.908Z,5.76
2019-03-13T06:44:46.838Z,5.76
2019-03-13T06:45:52.812Z,5.78
2019-03-13T06:46:58.460Z,5.82
2019-03-13T06:48:03.740Z,5.78
2019-03-13T06:49:09.346Z,5.81
2019-03-13T06:50:15.085Z,5.90
2019-03-13T06:51:20.721Z,5.89
2019-03-13T06:52:26.405Z,5.94
2019-03-13T06:53:31.982Z,5.99
2019-03-13T06:54:37.630Z,6.04
2019-03-13T06:55:43.241Z,6.00
2019-03-13T06:56:48.890Z,6.07
2019-03-13T06:58:34.939Z,6.00
2019-03-13T06:59:45.872Z,6.03
2019-03-13T07:00:52.247Z,6.10
2019-03-13T07:02:00.320Z,6.21
2019-03-13T07:03:05.754Z,6.21
2019-03-13T07:04:11.620Z,6.24
2019-03-13T07:05:27.990Z,6.31
2019-03-13T07:08:10.830Z,6.25
2019-03-13T07:09:18.825Z,6.34
2019-03-13T07:10:28.647Z,6.34
2019-03-13T07:11:48.924Z,6.37
2019-03-13T07:12:54.917Z,6.45
2019-03-13T07:14:03.284Z,6.45
2019-03-13T07:16:45.658Z,6.59
2019-03-13T07:19:29.546Z,6.56
2019-03-13T07:22:09.404Z,6.57
2019-03-13T07:25:05.917Z,6.74
2019-03-13T07:26:14.110Z,6.67
2019-03-13T07:27:22.567Z,6.76
2019-03-13T07:28:33.579Z,6.79
2019-03-13T07:29:41.588Z,6.82
2019-03-13T07:30:52.474Z,6.88
2019-03-13T07:32:14.595Z,6.82
2019-03-13T07:33:25.915Z,6.85
2019-03-13T07:34:44.083Z,6.87
2019-03-13T07:35:52.004Z,6.96
2019-03-13T07:37:16.369Z,6.95
2019-03-13T07:38:21.794Z,7.03
2019-03-13T07:39:44.025Z,6.96
2019-03-13T07:41:00.471Z,7.02
2019-03-13T07:44:00.398Z,7.13
2019-03-13T07:45:07.694Z,7.22
2019-03-13T07:46:18.768Z,7.25
2019-03-13T07:47:29.453Z,7.27
2019-03-13T07:48:38.111Z,7.31
2019-03-13T07:49:48.313Z,7.25
2019-03-13T07:50:54.725Z,7.36
2019-03-13T07:53:37.072Z,7.45
2019-03-13T07:56:31.674Z,7.41
2019-03-13T07:57:39.992Z,7.42
2019-03-13T08:00:33.307Z,7.53
2019-03-13T08:01:41.251Z,7.60
2019-03-13T08:02:50.195Z,7.61
2019-03-13T08:03:56.993Z,7.71
2019-03-13T08:05:16.357Z,7.66
2019-03-13T08:08:10.449Z,7.79
2019-03-13T08:09:46.829Z,7.80
2019-03-13T08:11:20.481Z,7.73
2019-03-13T08:14:02.608Z,7.77
2019-03-13T08:15:12.886Z,7.79
2019-03-13T08:16:18.261Z,7.85
2019-03-13T08:17:24.449Z,7.98
2019-03-13T08:20:14.015Z,7.96
2019-03-13T08:23:00.521Z,8.05
2019-03-13T08:24:08.384Z,7.98
2019-03-13T08:25:15.029Z,8.14
2019-03-13T08:26:20.487Z,8.16
2019-03-13T08:27:28.378Z,8.27
2019-03-13T08:28:40.758Z,8.29
2019-03-13T08:31:24.276Z,8.46
2019-03-13T08:34:08.962Z,8.51
2019-03-13T08:35:16.820Z,8.67
2019-03-13T08:36:22.620Z,8.81
2019-03-13T08:37:28.922Z,9.02
2019-03-13T08:38:34.498Z,9.10
2019-03-13T08:39:45.414Z,9.19
2019-03-13T08:40:57.317Z,8.94
2019-03-13T08:42:05.224Z,8.76
2019-03-13T08:43:11.255Z,8.71
2019-03-13T08:44:22.361Z,8.77
2019-03-13T08:45:31.400Z,8.74
2019-03-13T08:46:37.922Z,8.77
2019-03-13T08:47:48.397Z,8.67
2019-03-13T08:48:55.778Z,8.60
2019-03-13T08:50:04.653Z,8.48
2019-03-13T08:51:11.523Z,8.41
2019-03-13T08:52:24.396Z,8.43
2019-03-13T08:53:29.752Z,8.38
2019-03-13T08:54:35.672Z,8.32
2019-03-13T08:55:54.496Z,8.32
2019-03-13T08:57:00.745Z,8.32
2019-03-13T08:58:11.604Z,8.26
2019-03-13T08:59:18.962Z,8.28
2019-03-13T09:02:01.822Z,8.17
2019-03-13T09:03:14.387Z,8.17
2019-03-13T09:06:03.376Z,8.34
2019-03-13T09:07:12.368Z,8.36
2019-03-13T09:09:58.391Z,8.37
2019-03-13T09:11:09.061Z,8.52
2019-03-13T09:12:16.933Z,8.36
2019-03-13T09:13:22.831Z,8.36
2019-03-13T09:16:00.394Z,8.46
2019-03-13T09:17:11.456Z,8.30
2019-03-13T09:18:19.276Z,8.39
2019-03-13T09:19:33.259Z,8.40
2019-03-13T09:20:44.543Z,8.23
2019-03-13T09:23:22.927Z,8.22
2019-03-13T09:24:35.106Z,8.32
2019-03-13T09:25:44.034Z,8.34
2019-03-13T09:26:50.474Z,8.31
2019-03-13T09:28:02.182Z,8.40
2019-03-13T09:29:08.227Z,8.58
2019-03-13T09:30:32.317Z,8.66
2019-03-13T09:31:39.078Z,8.71
2019-03-13T09:33:05.415Z,8.65
2019-03-13T09:34:11.819Z,8.62
2019-03-13T09:37:04.852Z,8.83
2019-03-13T09:38:26.535Z,8.90
2019-03-13T09:39:47.955Z,8.99
2019-03-13T09:40:58.909Z,9.20
2019-03-13T09:42:08.939Z,9.32
2019-03-13T09:43:20.163Z,9.31
2019-03-13T09:44:31.201Z,9.51
2019-03-13T09:45:45.098Z,9.56
2019-03-13T09:46:54.795Z,9.54
2019-03-13T09:48:01.121Z,9.34
2019-03-13T09:50:42.767Z,9.13
2019-03-13T09:51:48.358Z,9.15
2019-03-13T09:52:55.380Z,8.97
2019-03-13T09:54:00.994Z,8.93
2019-03-13T09:55:05.779Z,8.97
2019-03-13T09:56:14.773Z,8.94
2019-03-13T09:58:58.868Z,9.02
2019-03-13T10:01:56.398Z,8.74
2019-03-13T10:03:20.772Z,8.96
2019-03-13T10:06:03.174Z,9.03
2019-03-13T10:07:09.158Z,9.00
2019-03-13T10:08:31.386Z,9.03
2019-03-13T10:09:38.690Z,8.84
2019-03-13T10:10:49.735Z,8.87
2019-03-13T10:11:58.884Z,8.91
2019-03-13T10:13:14.717Z,8.95
2019-03-13T10:14:26.831Z,9.00
2019-03-13T10:15:32.193Z,8.92
2019-03-13T10:16:38.178Z,8.90
2019-03-13T10:17:49.206Z,8.92
2019-03-13T10:20:50.437Z,9.04
2019-03-13T10:22:24.006Z,9.18
2019-03-13T10:23:45.485Z,9.12
2019-03-13T10:24:52.450Z,9.32
2019-03-13T10:26:00.293Z,9.53
2019-03-13T10:27:10.892Z,9.65
2019-03-13T10:28:16.282Z,9.81
2019-03-13T10:29:25.196Z,9.94
2019-03-13T10:30:35.130Z,10.09
2019-03-13T10:31:50.447Z,10.15
2019-03-13T10:32:59.300Z,10.16
2019-03-13T10:34:07.230Z,10.38
2019-03-13T10:35:23.899Z,10.47
2019-03-13T10:38:14.101Z,10.38
2019-03-13T10:39:17.657Z,10.39
2019-03-13T10:40:25.308Z,10.53
2019-03-13T10:41:32.660Z,10.68
2019-03-13T10:42:43.634Z,10.72
2019-03-13T10:43:54.564Z,10.77
2019-03-13T10:45:18.730Z,11.03
2019-03-13T10:46:29.833Z,10.96
2019-03-13T10:47:36.008Z,10.84
2019-03-13T10:48:45.421Z,10.39
2019-03-13T10:50:00.737Z,10.61
2019-03-13T10:52:53.462Z,10.77
2019-03-13T10:54:04.617Z,10.63
2019-03-13T10:55:15.424Z,10.62
2019-03-13T10:56:41.682Z,10.48
2019-03-13T10:59:21.112Z,9.98
2019-03-13T11:00:26.603Z,10.03
2019-03-13T11:03:21.830Z,10.20
2019-03-13T11:04:46.074Z,10.26
2019-03-13T11:05:54.305Z,10.19
2019-03-13T11:07:00.626Z,10.22
2019-03-13T11:08:06.285Z,10.16
2019-03-13T11:09:27.665Z,10.05
2019-03-13T11:12:10.745Z,10.40
2019-03-13T11:14:53.628Z,10.36
2019-03-13T11:16:00.315Z,10.21
2019-03-13T11:17:10.973Z,9.92
2019-03-13T11:18:21.333Z,9.74
2019-03-13T11:21:01.150Z,9.79
2019-03-13T11:23:42.146Z,9.81
2019-03-13T11:24:51.184Z,9.70
2019-03-13T11:26:06.223Z,9.70
2019-03-13T11:27:17.201Z,9.56
2019-03-13T11:28:23.572Z,9.61
2019-03-13T11:29:37.440Z,9.67
2019-03-13T11:32:18.805Z,9.70
2019-03-13T11:35:03.030Z,9.65
2019-03-13T11:36:10.088Z,9.61
2019-03-13T11:37:15.782Z,9.66
2019-03-13T11:38:25.177Z,9.75
2019-03-13T11:39:31.435Z,9.80
2019-03-13T11:40:38.378Z,9.92
2019-03-13T11:41:43.797Z,10.01
2019-03-13T11:42:49.300Z,9.85
2019-03-13T11:44:10.441Z,9.86
2019-03-13T11:45:15.943Z,9.87
2019-03-13T11:48:03.643Z,9.86
2019-03-13T11:50:46.412Z,9.98
2019-03-13T11:51:51.819Z,9.92
2019-03-13T11:53:02.751Z,9.95
2019-03-13T11:54:23.037Z,9.83
2019-03-13T11:55:34.006Z,9.87
2019-03-13T11:56:39.376Z,9.86
2019-03-13T11:57:49.565Z,9.90
2019-03-13T11:58:54.937Z,9.92
2019-03-13T12:00:16.112Z,9.92
2019-03-13T12:01:44.856Z,9.98
2019-03-13T12:02:41.081Z,9.94
2019-03-13T12:03:48.362Z,9.94
2019-03-13T12:04:56.141Z,9.81
2019-03-13T12:06:03.948Z,9.69
2019-03-13T12:08:58.911Z,9.72
2019-03-13T12:11:47.290Z,9.86
2019-03-13T12:12:55.807Z,9.88
2019-03-13T12:15:51.045Z,10.08
2019-03-13T12:17:14.821Z,10.14
2019-03-13T12:18:37.015Z,10.01
2019-03-13T12:19:46.266Z,9.95
2019-03-13T12:20:59.140Z,9.91
2019-03-13T12:23:48.589Z,9.91
2019-03-13T12:24:59.528Z,9.87
2019-03-13T12:26:06.076Z,9.91
2019-03-13T12:27:16.490Z,9.95
2019-03-13T12:28:22.230Z,9.98
2019-03-13T12:29:31.065Z,10.04
2019-03-13T12:30:42.749Z,10.12
2019-03-13T12:31:48.473Z,10.09
2019-03-13T12:33:00.295Z,10.00
2019-03-13T12:34:05.001Z,10.00
2019-03-13T12:36:47.579Z,9.77
2019-03-13T12:38:03.353Z,9.78
2019-03-13T12:39:11.592Z,9.89
2019-03-13T12:40:18.038Z,10.01
2019-03-13T12:41:42.266Z,10.01
2019-03-13T12:42:48.129Z,9.77
2019-03-13T12:43:57.501Z,9.80
2019-03-13T12:45:13.277Z,9.81
2019-03-13T12:46:24.176Z,9.83
2019-03-13T12:47:30.496Z,9.83
2019-03-13T12:48:35.454Z,9.67
2019-03-13T12:49:46.443Z,9.51
2019-03-13T12:50:52.326Z,9.57
2019-03-13T12:53:45.282Z,9.41
2019-03-13T12:55:03.430Z,9.54
2019-03-13T12:56:12.707Z,9.62
2019-03-13T12:57:18.064Z,9.54
2019-03-13T12:58:23.821Z,9.54
2019-03-13T12:59:29.222Z,9.56
2019-03-13T13:00:34.928Z,9.43
2019-03-13T13:03:35.069Z,9.38
2019-03-13T13:04:59.310Z,9.29
2019-03-13T13:06:07.797Z,9.38
2019-03-13T13:07:13.575Z,9.37
2019-03-13T13:08:19.749Z,9.32
2019-03-13T13:11:03.065Z,9.33
2019-03-13T13:12:10.865Z,9.31
2019-03-13T13:13:16.581Z,9.41
2019-03-13T13:14:37.537Z,9.36
2019-03-13T13:15:43.833Z,9.33
2019-03-13T13:16:49.564Z,9.36
2019-03-13T13:17:57.342Z,9.38
2019-03-13T13:19:02.960Z,9.39
2019-03-13T13:20:07.898Z,9.38
2019-03-13T13:21:13.511Z,9.38
2019-03-13T13:22:19.109Z,9.30
2019-03-13T13:23:24.768Z,9.35
2019-03-13T13:24:30.404Z,9.28
2019-03-13T13:25:36.019Z,9.26
2019-03-13T13:26:41.587Z,9.30
2019-03-13T13:27:47.160Z,9.36
2019-03-13T13:28:52.746Z,9.44
2019-03-13T13:29:58.388Z,9.42
2019-03-13T13:31:03.617Z,9.37
2019-03-13T13:32:09.241Z,9.35
2019-03-13T13:33:14.838Z,9.34
2019-03-13T13:34:20.480Z,9.44
2019-03-13T13:35:26.190Z,9.42
2019-03-13T13:36:31.820Z,9.46
2019-03-13T13:37:37.392Z,9.46
2019-03-13T13:38:42.980Z,9.47
2019-03-13T13:39:48.540Z,9.46
2019-03-13T13:40:54.145Z,9.39
2019-03-13T13:41:59.756Z,9.42
2019-03-13T13:43:05.331Z,9.50
2019-03-13T13:44:10.958Z,9.49
2019-03-13T13:45:27.816Z,9.50
2019-03-13T13:46:32.739Z,9.40
2019-03-13T13:47:38.339Z,9.40
2019-03-13T13:48:43.906Z,9.48
2019-03-13T13:49:59.101Z,9.48
2019-03-13T13:50:55.216Z,9.48
2019-03-13T13:52:00.792Z,9.49
2019-03-13T13:53:05.656Z,9.49
2019-03-13T13:54:11.287Z,9.51
2019-03-13T13:55:16.859Z,9.57
2019-03-13T13:56:22.447Z,9.46
2019-03-13T13:57:28.050Z,9.41
2019-03-13T13:58:33.703Z,9.54
2019-03-13T13:59:39.272Z,9.58
2019-03-13T14:00:44.899Z,9.57
2019-03-13T14:01:50.488Z,9.53
2019-03-13T14:02:56.067Z,9.60
2019-03-13T14:04:01.639Z,9.66
2019-03-13T14:05:06.544Z,9.69
2019-03-13T14:06:12.199Z,9.65
2019-03-13T14:07:17.795Z,9.70
2019-03-13T14:08:23.425Z,9.63
2019-03-13T14:09:29.074Z,9.43
2019-03-13T14:10:34.667Z,9.48
2019-03-13T14:11:40.280Z,9.52
2019-03-13T14:12:47.040Z,9.57
2019-03-13T14:13:52.264Z,9.44
2019-03-13T14:14:57.883Z,9.39
2019-03-13T14:16:03.540Z,9.45
2019-03-13T14:17:09.127Z,9.50
2019-03-13T14:18:14.737Z,9.49
2019-03-13T14:19:20.309Z,9.45
2019-03-13T14:20:25.900Z,9.45
2019-03-13T14:21:31.523Z,9.53
2019-03-13T14:22:37.109Z,9.41
2019-03-13T14:23:44.216Z,9.48
2019-03-13T14:24:49.844Z,9.49
2019-03-13T14:25:55.459Z,9.45
2019-03-13T14:27:13.478Z,9.51
2019-03-13T14:28:06.664Z,9.60
2019-03-13T14:29:12.298Z,9.62
2019-03-13T14:30:19.875Z,9.60
2019-03-13T14:31:25.514Z,9.55
2019-03-13T14:32:31.116Z,9.53
2019-03-13T14:33:36.345Z,9.49
2019-03-13T14:34:41.957Z,9.49
2019-03-13T14:35:48.323Z,9.47
2019-03-13T14:36:54.542Z,9.47
2019-03-13T14:38:00.141Z,9.47
2019-03-13T14:39:05.059Z,9.48
2019-03-13T14:40:13.731Z,9.40
2019-03-13T14:41:19.357Z,9.33
2019-03-13T14:42:26.336Z,9.39
2019-03-13T14:43:31.908Z,9.31
2019-03-13T14:44:37.489Z,9.33
2019-03-13T14:45:43.071Z,9.37
2019-03-13T14:46:48.705Z,9.31
2019-03-13T14:47:54.279Z,9.36
2019-03-13T14:48:59.887Z,9.37
2019-03-13T14:50:04.799Z,9.42
2019-03-13T14:51:10.384Z,9.38
2019-03-13T14:52:15.681Z,9.34
2019-03-13T14:53:20.959Z,9.31
2019-03-13T14:54:26.629Z,9.31
2019-03-13T14:55:32.264Z,9.32
2019-03-13T14:56:37.846Z,9.35
2019-03-13T14:57:43.273Z,9.32
2019-03-13T14:58:48.886Z,9.32
2019-03-13T14:59:54.490Z,9.35
2019-03-13T15:01:00.122Z,9.30
2019-03-13T15:02:05.737Z,9.37
2019-03-13T15:03:11.468Z,9.50
2019-03-13T15:04:17.062Z,9.38
2019-03-13T15:05:22.001Z,9.45
2019-03-13T15:06:27.522Z,9.39
2019-03-13T15:07:33.127Z,9.28
2019-03-13T15:08:38.939Z,9.21
2019-03-13T15:09:44.571Z,9.26
2019-03-13T15:10:50.156Z,9.35
2019-03-13T15:11:55.727Z,9.47
2019-03-13T15:13:01.373Z,9.52
2019-03-13T15:14:06.944Z,9.49
2019-03-13T15:15:13.802Z,9.51
2019-03-13T15:16:19.399Z,9.45
2019-03-13T15:17:25.024Z,9.49
2019-03-13T15:18:30.275Z,9.40
2019-03-13T15:19:35.875Z,9.42
2019-03-13T15:20:41.483Z,9.37
2019-03-13T15:21:47.073Z,9.33
2019-03-13T15:22:52.775Z,9.37
2019-03-13T15:23:58.373Z,9.40
2019-03-13T15:25:03.334Z,9.42
2019-03-13T15:26:08.967Z,9.43
2019-03-13T15:27:14.551Z,9.38
2019-03-13T15:28:20.169Z,9.39
2019-03-13T15:29:25.751Z,9.41
2019-03-13T15:30:31.238Z,9.38
2019-03-13T15:31:36.888Z,9.39
2019-03-13T15:32:42.524Z,9.36
2019-03-13T15:33:48.253Z,9.43
2019-03-13T15:34:53.853Z,9.47
2019-03-13T15:35:59.714Z,9.44
2019-03-13T15:37:04.948Z,9.45
2019-03-13T15:38:10.824Z,9.44
2019-03-13T15:39:16.444Z,9.24
2019-03-13T15:40:22.078Z,9.33
2019-03-13T15:41:27.719Z,9.37
2019-03-13T15:42:33.370Z,9.31
2019-03-13T15:43:38.933Z,9.35
2019-03-13T15:44:44.516Z,9.28
2019-03-13T15:45:49.432Z,9.28
2019-03-13T15:46:54.655Z,9.20
2019-03-13T15:48:00.265Z,9.31
2019-03-13T15:49:05.865Z,9.37
2019-03-13T15:50:10.780Z,9.31
2019-03-13T15:51:16.354Z,9.38
2019-03-13T15:52:21.940Z,9.24
2019-03-13T15:53:27.203Z,9.16
2019-03-13T15:54:32.813Z,9.28
2019-03-13T15:55:38.087Z,9.12
2019-03-13T15:56:44.840Z,9.18
2019-03-13T15:57:50.143Z,9.27
2019-03-13T15:58:55.773Z,9.19
2019-03-13T16:00:01.454Z,9.26
2019-03-13T16:01:09.966Z,9.27
2019-03-13T16:02:15.552Z,9.14
2019-03-13T16:03:21.185Z,9.30
2019-03-13T16:04:26.760Z,9.40
2019-03-13T16:05:32.319Z,9.43
2019-03-13T16:06:37.599Z,9.44
2019-03-13T16:07:43.221Z,9.37
2019-03-13T16:08:48.821Z,9.32
2019-03-13T16:09:54.438Z,9.10
2019-03-13T16:11:00.686Z,9.21